Map

Track Data

SID SEASON NUMBER BASIN SUBBASIN NAME ISO_TIME NATURE LAT LON WMO_WIND WMO_PRES WMO_AGENCY TRACK_TYPE DIST2LAND LANDFALL IFLAG USA_AGENCY USA_ATCF_ID USA_LAT USA_LON USA_RECORD USA_STATUS USA_WIND USA_PRES USA_SSHS USA_R34_NE USA_R34_SE USA_R34_SW USA_R34_NW USA_R50_NE USA_R50_SE USA_R50_SW USA_R50_NW USA_R64_NE USA_R64_SE USA_R64_SW USA_R64_NW USA_POCI USA_ROCI USA_RMW USA_EYE TOKYO_LAT TOKYO_LON TOKYO_GRADE TOKYO_WIND TOKYO_PRES TOKYO_R50_DIR TOKYO_R50_LONG TOKYO_R50_SHORT TOKYO_R30_DIR TOKYO_R30_LONG TOKYO_R30_SHORT TOKYO_LAND CMA_LAT CMA_LON CMA_CAT CMA_WIND CMA_PRES HKO_LAT HKO_LON HKO_CAT HKO_WIND HKO_PRES NEWDELHI_LAT NEWDELHI_LON NEWDELHI_GRADE NEWDELHI_WIND NEWDELHI_PRES NEWDELHI_CI NEWDELHI_DP NEWDELHI_POCI REUNION_LAT REUNION_LON REUNION_TYPE REUNION_WIND REUNION_PRES REUNION_TNUM REUNION_CI REUNION_RMW REUNION_R34_NE REUNION_R34_SE REUNION_R34_SW REUNION_R34_NW REUNION_R50_NE REUNION_R50_SE REUNION_R50_SW REUNION_R50_NW REUNION_R64_NE REUNION_R64_SE REUNION_R64_SW REUNION_R64_NW BOM_LAT BOM_LON BOM_TYPE BOM_WIND BOM_PRES BOM_TNUM BOM_CI BOM_RMW BOM_R34_NE BOM_R34_SE BOM_R34_SW BOM_R34_NW BOM_R50_NE BOM_R50_SE BOM_R50_SW BOM_R50_NW BOM_R64_NE BOM_R64_SE BOM_R64_SW BOM_R64_NW BOM_ROCI BOM_POCI BOM_EYE BOM_POS_METHOD BOM_PRES_METHOD NADI_LAT NADI_LON NADI_CAT NADI_WIND NADI_PRES WELLINGTON_LAT WELLINGTON_LON WELLINGTON_WIND WELLINGTON_PRES DS824_LAT DS824_LON DS824_STAGE DS824_WIND DS824_PRES TD9636_LAT TD9636_LON TD9636_STAGE TD9636_WIND TD9636_PRES TD9635_LAT TD9635_LON TD9635_WIND TD9635_PRES TD9635_ROCI NEUMANN_LAT NEUMANN_LON NEUMANN_CLASS NEUMANN_WIND NEUMANN_PRES MLC_LAT MLC_LON MLC_CLASS MLC_WIND MLC_PRES USA_GUST BOM_GUST BOM_GUST_PER REUNION_GUST REUNION_GUST_PER USA_SEAHGT USA_SEARAD_NE USA_SEARAD_SE USA_SEARAD_SW USA_SEARAD_NW STORM_SPEED STORM_DIR
1986270N05178 1986 98 WP MM CARMEN 1986-09-27 00:00:00 NR 4.60000 177.600 main 2288 2288 __________O___ -1 4.60000 177.600 0 11 281
1986270N05178 1986 98 WP MM CARMEN 1986-09-27 03:00:00 NR 4.70687 177.063 main 2324 2291 __________P___ -1 4.70687 177.063 0 11 281
1986270N05178 1986 98 WP MM CARMEN 1986-09-27 06:00:00 NR 4.80083 176.541 main 2283 2257 __________P___ -1 4.80083 176.541 0 10 279
1986270N05178 1986 98 WP MM CARMEN 1986-09-27 09:00:00 NR 4.86935 176.048 main 2249 2216 __________P___ -1 4.86935 176.048 0 9 276
1986270N05178 1986 98 WP MM CARMEN 1986-09-27 12:00:00 NR 4.90000 175.600 main 2216 2184 __________O___ -1 4.90000 175.600 0 8 271
1986270N05178 1986 98 WP MM CARMEN 1986-09-27 15:00:00 NR 4.88827 175.197 main 2184 2152 __________P___ -1 4.88827 175.197 0 8 267
1986270N05178 1986 98 WP MM CARMEN 1986-09-27 18:00:00 NR 4.86122 174.779 main 2152 2113 __________P___ -1 4.86122 174.779 0 9 268
1986270N05178 1986 98 WP MM CARMEN 1986-09-27 21:00:00 NR 4.85362 174.272 main 2113 2059 __________P___ -1 4.85362 174.272 0 12 272
1986270N05178 1986 98 WP MM CARMEN 1986-09-28 00:00:00 NR 4.90000 173.600 main 2059 1999 __________O___ -1 4.90000 173.600 0 16 276
1986270N05178 1986 98 WP MM CARMEN 1986-09-28 03:00:00 NR 5.02727 172.632 main 1992 1938 __________P___ -1 5.02727 172.632 0 21 278
1986270N05178 1986 98 WP MM CARMEN 1986-09-28 06:00:00 NR 5.21151 171.505 main 1932 1877 __________P___ -1 5.21151 171.505 0 23 280
1986270N05178 1986 98 WP MM CARMEN 1986-09-28 09:00:00 NR 5.43980 170.325 main 1871 1836 __________P___ -1 5.43980 170.325 0 24 282
1986270N05178 1986 98 WP MM CARMEN 1986-09-28 12:00:00 NR 5.70000 169.200 main 1834 1810 __________O___ -1 5.70000 169.200 0 22 285
1986270N05178 1986 98 WP MM CARMEN 1986-09-28 15:00:00 NR 5.99104 168.226 main 1810 1797 __________P___ -1 5.99104 168.226 0 20 288
1986270N05178 1986 98 WP MM CARMEN 1986-09-28 18:00:00 NR 6.30695 167.329 main 1798 1793 __________P___ -1 6.30695 167.329 0 18 290
1986270N05178 1986 98 WP MM CARMEN 1986-09-28 21:00:00 NR 6.61939 166.517 main 1795 1794 __________P___ -1 6.61939 166.517 0 16 291
1986270N05178 1986 98 WP MM CARMEN 1986-09-29 00:00:00 NR 6.90000 165.800 main 1801 1792 __________O___ -1 6.90000 165.800 0 14 290
1986270N05178 1986 98 WP MM CARMEN 1986-09-29 03:00:00 NR 7.09790 165.181 main 1798 1787 __________P___ -1 7.09790 165.181 0 12 288
1986270N05178 1986 98 WP MM CARMEN 1986-09-29 06:00:00 NR 7.26393 164.652 main 1796 1772 __________P___ -1 7.26393 164.652 0 11 288
1986270N05178 1986 98 WP MM CARMEN 1986-09-29 09:00:00 NR 7.42305 164.172 main 1772 1757 __________P___ -1 7.42305 164.172 0 10 290
1986270N05178 1986 98 WP MM CARMEN 1986-09-29 12:00:00 NR 7.60000 163.700 main 1760 1747 __________O___ -1 7.60000 163.700 0 11 292
1986270N05178 1986 98 WP MM CARMEN 1986-09-29 15:00:00 NR 7.83238 163.167 main 1747 1728 __________P___ -1 7.83238 163.167 0 12 295
1986270N05178 1986 98 WP MM CARMEN 1986-09-29 18:00:00 NR 8.08485 162.635 main 1729 1713 __________P___ -1 8.08485 162.635 0 12 296
1986270N05178 1986 98 WP MM CARMEN 1986-09-29 21:00:00 NR 8.34489 162.111 main 1713 1704 __________P___ -1 8.34489 162.111 0 11 297
1986270N05178 1986 98 WP MM CARMEN 1986-09-30 00:00:00 NR 8.60000 161.600 main 1706 1690 __________O___ -1 8.60000 161.600 0 11 296
1986270N05178 1986 98 WP MM CARMEN 1986-09-30 03:00:00 NR 8.82372 161.118 main 1690 1682 __________P___ -1 8.82372 161.118 0 10 295
1986270N05178 1986 98 WP MM CARMEN 1986-09-30 06:00:00 NR 9.04202 160.649 main 1676 1670 __________P___ -1 9.04202 160.649 0 10 295
1986270N05178 1986 98 WP MM CARMEN 1986-09-30 09:00:00 NR 9.26433 160.181 main 1679 1665 __________P___ -1 9.26433 160.181 0 10 296
1986270N05178 1986 98 WP MM CARMEN 1986-09-30 12:00:00 NR 9.50000 159.700 main 1669 1661 __________O___ -1 9.50000 159.700 0 11 299
1986270N05178 1986 98 WP MM CARMEN 1986-09-30 15:00:00 NR 9.79704 159.190 main 1669 1663 __________P___ -1 9.79704 159.190 0 12 301
1986270N05178 1986 98 WP MM CARMEN 1986-09-30 18:00:00 NR 10.1023 158.666 main 1670 1665 __________P___ -1 10.1023 158.666 0 12 299
1986270N05178 1986 98 WP MM CARMEN 1986-09-30 21:00:00 NR 10.3814 158.134 main 1670 1659 __________P___ -1 10.3814 158.134 0 12 295
1986270N05178 1986 98 WP MM CARMEN 1986-10-01 00:00:00 NR 10.6000 157.600 main 1664 1651 __________O___ -1 10.6000 157.600 1 15 11 288
1986270N05178 1986 98 WP MM CARMEN 1986-10-01 03:00:00 NR 10.7182 157.095 main 1651 1639 __________P___ -1 10.7182 157.095 1 17 10 280
1986270N05178 1986 98 WP MM CARMEN 1986-10-01 06:00:00 NR 10.7742 156.587 main 1639 1618 __________P___ -1 10.7742 156.587 1 20 10 274
1986270N05178 1986 98 WP MM CARMEN 1986-10-01 09:00:00 NR 10.7931 156.060 main 1618 1564 __________P___ -1 10.7931 156.060 1 22 12 258
1986270N05178 1986 98 WP MM CARMEN 1986-10-01 12:00:00 TS 10.5333 155.417 1004 tokyo main 1560 1537 _OO_______O___ -1 10.0000 155.500 2 1004 0 0 0 10.0000 155.000 1 29 1004 10.8000 155.500 1 25 14 258
1986270N05178 1986 98 WP MM CARMEN 1986-10-01 15:00:00 TS 10.5075 154.657 main 1537 1523 _PP_______P___ -1 10.2557 154.680 2 1004 0 0 10.1907 154.208 1 29 1004 10.7917 154.869 1 27 14 272
1986270N05178 1986 98 WP MM CARMEN 1986-10-01 18:00:00 TS 10.5831 153.963 1004 tokyo main 1529 1522 _OO_______P___ -1 10.5000 154.000 2 1004 0 0 0 10.4000 153.600 1 29 1004 10.7828 154.206 1 30 12 280
1986270N05178 1986 98 WP MM CARMEN 1986-10-01 21:00:00 TS 10.7238 153.451 main 1528 1526 _PP_______P___ -1 10.7220 153.535 2 1004 0 0 10.6421 153.277 1 29 1003 10.8074 153.541 1 32 10 289
1986270N05178 1986 98 WP MM CARMEN 1986-10-02 00:00:00 TS 10.9000 153.007 1004 tokyo main 1541 1538 OOOO______O___ jtwc_wp WP171986 10.9000 152.900 35 0 10.9000 153.100 2 1004 0 0 0 10.9000 153.000 1 29 1002 10.9000 153.200 TD 30 1000 10.9000 152.900 2 35 11 288
1986270N05178 1986 98 WP MM CARMEN 1986-10-02 03:00:00 TS 11.0716 152.374 main 1555 1551 PPPP______P___ WP171986 11.1435 151.986 37 0 10.9702 152.457 2 1003 0 0 11.1425 152.495 1 29 1002 11.0154 152.433 TD 32 1000 11.0943 152.334 2 36 13 287
1986270N05178 1986 98 WP MM CARMEN 1986-10-02 06:00:00 TS 11.2909 151.721 40 1002 tokyo main 1571 1570 OOOO______P___ jtwc_wp WP171986 11.4000 151.300 40 0 11.1000 151.800 3 40 1002 0 9 30 30 0 11.4000 151.900 1 29 1002 11.2000 151.700 TS 35 1000 11.3590 151.792 2 37 13 294
1986270N05178 1986 98 WP MM CARMEN 1986-10-02 09:00:00 TS 11.6011 151.172 main 1591 1588 PPPP______P___ WP171986 11.6844 150.970 40 0 11.4621 151.307 3 40 1002 0 9 35 35 11.6850 151.300 1 29 1001 11.5048 151.027 TS 37 1000 11.6693 151.255 2 38 12 303
1986270N05178 1986 98 WP MM CARMEN 1986-10-02 12:00:00 TS 11.9600 150.660 40 1002 tokyo main 1621 1616 OOOO______O___ jtwc_wp WP171986 12.0000 150.700 40 0 11.9000 150.800 3 40 1002 0 9 40 40 0 12.0000 150.700 1 29 1000 11.9000 150.400 TS 40 1000 12.0000 150.700 2 40 13 304
1986270N05178 1986 98 WP MM CARMEN 1986-10-02 15:00:00 TS 12.3244 150.067 main 1640 1638 PPPP______P___ WP171986 12.3501 150.153 42 0 12.2426 150.122 3 40 1001 0 9 40 40 12.3496 150.172 1 29 999 12.3574 149.785 TS 40 1000 12.3225 150.105 2 41 14 301
1986270N05178 1986 98 WP MM CARMEN 1986-10-02 18:00:00 TS 12.6914 149.437 40 1000 tokyo main 1672 1671 OOOO______P___ jtwc_wp WP171986 12.7000 149.500 45 0 12.6000 149.400 3 40 1000 0 9 40 40 0 12.7000 149.600 1 29 998 12.8000 149.200 TS 40 1000 12.6570 149.487 2 42 14 300
1986270N05178 1986 98 WP MM CARMEN 1986-10-02 21:00:00 TS 13.0320 148.793 main 1698 1698 PPPP______P___ WP171986 13.0148 148.865 45 0 13.0648 148.743 3 42 999 0 9 57 57 12.9627 148.857 1 33 996 13.1298 148.650 TS 40 999 12.9880 148.851 2 43 14 298
1986270N05178 1986 98 WP MM CARMEN 1986-10-03 00:00:00 TS 13.3600 148.140 45 998 tokyo main 1738 1737 OOOO______O___ jtwc_wp WP171986 13.3000 148.200 45 0 13.5000 148.100 3 45 998 0 9 75 75 0 13.3000 148.100 2 38 995 13.4000 148.100 TS 40 998 13.3000 148.200 2 45 14 298
1986270N05178 1986 98 WP MM CARMEN 1986-10-03 03:00:00 TS 13.6915 147.491 main 1770 1770 PPPP______P___ WP171986 13.5574 147.500 45 0 13.7799 147.435 3 45 997 0 9 100 100 13.9071 147.485 2 43 993 13.6499 147.515 TS 42 997 13.5634 147.523 2 46 14 297
1986270N05178 1986 98 WP MM CARMEN 1986-10-03 06:00:00 TS 14.0015 146.847 45 996 tokyo main 1803 1803 OOOO______P___ jtwc_wp WP171986 13.8000 146.800 45 0 14.0000 146.800 3 45 996 0 9 125 125 0 14.5000 146.900 3 48 992 13.9000 146.900 TS 45 996 13.8075 146.834 2 47 14 295
1986270N05178 1986 98 WP MM CARMEN 1986-10-03 09:00:00 TS 14.2744 146.206 main 1837 1837 PPPP______P___ WP171986 14.0498 146.142 47 0 14.2497 146.242 3 45 996 0 9 162 162 14.8250 146.242 3 48 991 14.1999 146.250 TS 47 995 14.0478 146.154 2 48 13 293
1986270N05178 1986 98 WP MM CARMEN 1986-10-03 12:00:00 TS 14.5200 145.580 45 996 tokyo main 1862 1862 OOOO______O___ jtwc_wp WP171986 14.3000 145.500 50 0 14.5000 145.700 3 45 996 0 9 200 200 0 15.0000 145.600 3 48 990 14.5000 145.600 STS 50 994 14.3000 145.500 2 50 13 291
1986270N05178 1986 98 WP MM CARMEN 1986-10-03 15:00:00 TS 14.7470 144.964 main 1890 1890 PPPP______P___ WP171986 14.5350 144.827 52 0 14.7574 145.107 3 45 995 0 9 200 200 15.1072 145.042 3 48 990 14.7499 144.977 STS 52 992 14.5853 144.864 2 52 13 291
1986270N05178 1986 98 WP MM CARMEN 1986-10-03 18:00:00 TS 14.9769 144.372 45 994 tokyo main 1930 1930 OOOO______P___ jtwc_wp WP171986 14.8000 144.200 55 0 15.0000 144.500 3 45 994 0 9 200 200 0 15.2000 144.500 3 48 990 15.0000 144.400 STS 55 990 14.8847 144.260 2 55 12 294
1986270N05178 1986 98 WP MM CARMEN 1986-10-03 21:00:00 TS 15.2363 143.799 main 1962 1957 PPPP______P___ WP171986 15.1423 143.670 57 0 15.1925 143.870 3 47 993 0 9 200 200 15.3627 143.870 3 53 989 15.2923 143.885 STS 55 990 15.1918 143.701 2 57 12 297
1986270N05178 1986 98 WP MM CARMEN 1986-10-04 00:00:00 TS 15.5200 143.280 50 992 tokyo main 1957 1918 OOOO______O___ jtwc_wp WP171986 15.5000 143.200 60 0 15.4000 143.300 4 50 992 9 9 200 200 0 15.6000 143.300 3 58 988 15.6000 143.400 STS 55 990 15.5000 143.200 2 60 11 302
1986270N05178 1986 98 WP MM CARMEN 1986-10-04 03:00:00 TS 15.8267 142.832 main 1909 1884 PPPP______P___ WP171986 15.8075 142.720 62 0 15.6847 142.877 4 50 991 9 9 200 200 15.9347 142.920 3 63 986 15.9075 142.878 STS 57 990 15.7992 142.767 2 61 10 307
1986270N05178 1986 98 WP MM CARMEN 1986-10-04 06:00:00 TS 16.1398 142.438 50 990 tokyo main 1873 1849 OOOO______P___ jtwc_wp WP171986 16.1000 142.300 65 1 16.0000 142.500 4 50 990 9 9 200 200 0 16.3000 142.600 4 68 985 16.2000 142.400 STS 60 990 16.0990 142.389 2 62 10 309
1986270N05178 1986 98 WP MM CARMEN 1986-10-04 09:00:00 TS 16.4298 142.059 main 1849 1815 PPPP______P___ WP171986 16.3998 141.992 65 1 16.2851 142.035 4 52 987 9 90 90 9 200 200 16.6150 142.192 4 68 982 16.4498 142.035 STS 62 987 16.3993 142.042 2 63 9 309
1986270N05178 1986 98 WP MM CARMEN 1986-10-04 12:00:00 TS 16.7200 141.700 55 985 tokyo main 1815 1790 OOOO______O___ jtwc_wp WP171986 16.7000 141.700 65 1 16.6000 141.600 4 55 985 9 90 90 9 200 200 0 16.9000 141.800 4 68 980 16.7000 141.700 T 65 985 16.7000 141.700 4 65 9 311
1986270N05178 1986 98 WP MM CARMEN 1986-10-04 15:00:00 TS 17.0306 141.349 main 1782 1761 PPPP______P___ WP171986 17.0000 141.307 70 1 17.0148 141.292 4 60 980 9 90 90 9 200 200 17.1497 141.515 4 72 977 16.9925 141.307 T 67 980 16.9958 141.321 4 70 9 312
1986270N05178 1986 98 WP MM CARMEN 1986-10-04 18:00:00 TS 17.3385 140.988 65 975 tokyo main 1761 1731 OOOO______P___ jtwc_wp WP171986 17.3000 140.900 75 1 17.4000 141.000 5 65 975 9 90 90 9 200 200 0 17.4000 141.200 4 77 975 17.3000 140.900 T 70 975 17.2923 140.942 4 75 9 309
1986270N05178 1986 98 WP MM CARMEN 1986-10-04 21:00:00 TS 17.6186 140.580 main 1731 1702 PPPP______P___ WP171986 17.5924 140.542 80 1 17.6150 140.607 5 67 970 9 120 95 9 250 200 17.6928 140.700 4 77 971 17.6000 140.485 T 72 970 17.5927 140.567 4 80 10 306
1986270N05178 1986 98 WP MM CARMEN 1986-10-05 00:00:00 TS 17.9000 140.180 70 965 tokyo main 1702 1674 OOOO______O___ jtwc_wp WP171986 17.9000 140.200 85 2 17.8000 140.200 5 70 965 1 150 100 1 300 200 0 18.0000 140.200 4 77 968 17.9000 140.100 T 75 965 17.9000 140.200 4 85 9 310
1986270N05178 1986 98 WP MM CARMEN 1986-10-05 03:00:00 TS 18.2143 139.830 main 1674 1653 PPPP______P___ WP171986 18.2499 139.850 87 2 18.0849 139.835 5 72 960 1 150 100 1 300 200 18.3073 139.870 4 77 961 18.2074 139.777 T 77 960 18.2219 139.818 4 87 9 315
1986270N05178 1986 98 WP MM CARMEN 1986-10-05 06:00:00 TS 18.5300 139.510 75 955 tokyo main 1653 1608 OOOO______P___ jtwc_wp WP171986 18.6000 139.500 90 2 18.4000 139.500 5 75 955 1 150 100 1 300 200 0 18.6000 139.600 4 77 955 18.5000 139.500 T 80 955 18.5501 139.448 4 90 9 315
1986270N05178 1986 98 WP MM CARMEN 1986-10-05 09:00:00 TS 18.8186 139.193 main 1608 1563 PPPP______P___ WP171986 18.9150 139.135 92 2 18.6924 139.185 5 77 950 1 150 100 1 300 200 18.8500 139.300 4 82 949 18.7574 139.242 T 82 950 18.8782 139.103 4 92 8 315
1986270N05178 1986 98 WP MM CARMEN 1986-10-05 12:00:00 TS 19.1000 138.900 80 945 tokyo main 1563 1518 OOOO______O___ jtwc_wp WP171986 19.2000 138.800 95 2 19.0000 138.900 5 80 945 1 150 100 1 300 200 0 19.1000 139.000 5 87 944 19.0000 139.000 ST 85 945 19.2000 138.800 4 95 8 316
1986270N05178 1986 98 WP MM CARMEN 1986-10-05 15:00:00 TS 19.3759 138.623 main 1518 1479 PPPP______P___ WP171986 19.4424 138.520 97 3 19.3425 138.635 5 82 942 1 150 125 1 300 225 19.3925 138.678 5 92 941 19.2275 138.750 ST 87 940 19.4745 138.532 4 95 8 319
1986270N05178 1986 98 WP MM CARMEN 1986-10-05 18:00:00 TS 19.6695 138.382 85 940 tokyo main 1479 1439 OOOO______P___ jtwc_wp WP171986 19.7000 138.300 100 3 19.7000 138.400 5 85 940 9 150 150 2 300 250 0 19.7000 138.400 5 97 939 19.5000 138.500 ST 90 935 19.7473 138.309 4 95 7 326
1986270N05178 1986 98 WP MM CARMEN 1986-10-05 21:00:00 TS 19.9913 138.178 main 1439 1400 PPPP______P___ WP171986 20.0200 138.127 97 3 20.0425 138.185 5 85 942 9 150 150 2 300 250 19.9924 138.212 5 97 943 19.8550 138.235 ST 90 940 20.0464 138.132 4 95 8 334
1986270N05178 1986 98 WP MM CARMEN 1986-10-06 00:00:00 TS 20.3600 138.020 85 945 tokyo main 1390 1356 OOOO______O___ jtwc_wp WP171986 20.4000 138.000 95 2 20.4000 138.000 5 85 945 9 150 150 2 300 250 0 20.3000 138.100 5 97 947 20.3000 138.000 ST 90 945 20.4000 138.000 4 95 8 341
1986270N05178 1986 98 WP MM CARMEN 1986-10-06 03:00:00 TS 20.7706 137.889 main 1346 1303 PPPP______P___ WP171986 20.8200 137.878 92 2 20.7775 137.827 5 85 947 9 150 150 2 300 250 20.5900 138.050 5 87 951 20.8275 137.820 ST 87 947 20.8383 137.871 4 92 9 347
1986270N05178 1986 98 WP MM CARMEN 1986-10-06 06:00:00 TS 21.2465 137.798 85 950 tokyo main 1303 1240 OOOO______P___ jtwc_wp WP171986 21.3000 137.800 90 2 21.2000 137.700 5 85 950 9 150 150 2 300 250 0 21.0000 138.000 4 77 955 21.4000 137.700 ST 85 950 21.3323 137.788 4 90 10 351
1986270N05178 1986 98 WP MM CARMEN 1986-10-06 09:00:00 TS 21.7985 137.714 main 1240 1192 PPPP______P___ WP171986 21.8350 137.770 87 2 21.6775 137.613 5 77 955 9 150 150 2 300 250 21.6701 137.821 4 77 957 21.9500 137.605 ST 82 955 21.8602 137.762 4 87 11 355
1986270N05178 1986 98 WP MM CARMEN 1986-10-06 12:00:00 TS 22.3800 137.700 70 960 tokyo main 1182 1140 OOOO______O___ jtwc_wp WP171986 22.4000 137.800 85 2 22.2000 137.600 5 70 960 9 150 150 1 300 250 0 22.4000 137.700 4 77 960 22.5000 137.600 T 80 960 22.4000 137.800 4 85 11 2
1986270N05178 1986 98 WP MM CARMEN 1986-10-06 15:00:00 TS 22.9048 137.765 main 1140 1098 PPPP______P___ WP171986 22.9574 137.863 85 2 22.7274 137.640 5 70 962 9 150 150 1 300 250 22.9574 137.775 4 72 962 23.0499 137.698 T 75 962 22.8321 137.849 4 83 11 11
1986270N05178 1986 98 WP MM CARMEN 1986-10-06 18:00:00 TS 23.4368 137.934 70 965 tokyo main 1098 1065 OOOO______P___ jtwc_wp WP171986 23.5000 138.000 85 2 23.3000 137.800 5 70 965 9 150 150 1 300 250 0 23.5000 138.000 4 68 965 23.6000 137.900 T 70 965 23.2842 137.969 4 82 11 20
1986270N05178 1986 98 WP MM CARMEN 1986-10-06 21:00:00 TS 23.9702 138.179 main 1062 1016 PPPP______P___ WP171986 23.9323 138.191 82 1 23.9125 138.090 5 70 965 9 140 140 1 275 225 24.1050 138.305 4 68 964 24.0822 138.127 T 70 965 23.8192 138.179 4 81 13 25
1986270N05178 1986 98 WP MM CARMEN 1986-10-07 00:00:00 TS 24.6200 138.540 70 965 tokyo main 1016 944 OOOO______O___ jtwc_wp WP171986 24.5000 138.500 80 1 24.6000 138.500 5 70 965 9 130 130 1 250 200 0 24.8000 138.700 4 68 963 24.7000 138.500 T 70 965 24.5000 138.500 4 80 17 27
1986270N05178 1986 98 WP MM CARMEN 1986-10-07 03:00:00 TS 25.4608 139.011 main 934 858 PPPP______P___ WP171986 25.4100 138.940 80 1 25.3024 138.957 5 70 962 9 127 127 1 275 225 25.5894 139.084 4 68 961 25.6182 139.119 T 70 962 25.3842 138.954 4 80 21 27
1986270N05178 1986 98 WP MM CARMEN 1986-10-07 06:00:00 TS 26.4629 139.584 70 960 tokyo main 852 781 OOOO______P___ jtwc_wp WP171986 26.5000 139.500 80 1 26.2000 139.500 5 70 960 9 125 125 1 300 250 0 26.5000 139.600 4 68 960 26.7000 139.800 T 70 960 26.4146 139.521 4 80 24 28
1986270N05178 1986 98 WP MM CARMEN 1986-10-07 09:00:00 TS 27.5633 140.235 main 771 684 PPPP______P___ WP171986 27.5776 140.135 80 1 27.4329 140.149 5 67 960 9 112 112 1 287 212 27.4838 140.406 4 68 960 27.7846 140.331 T 70 960 27.5374 140.152 4 80 26 27
1986270N05178 1986 98 WP MM CARMEN 1986-10-07 12:00:00 TS 28.7400 140.880 65 960 tokyo main 687 575 OOOO______O___ jtwc_wp WP171986 28.7000 140.800 80 1 28.8000 140.800 5 65 960 9 100 100 1 275 175 0 28.6000 141.200 4 68 960 28.9000 140.800 T 70 960 28.7000 140.800 4 80 26 23
1986270N05178 1986 98 WP MM CARMEN 1986-10-07 15:00:00 TS 29.9274 141.401 main 575 462 PPPP______P___ WP171986 29.8421 141.409 80 1 30.0720 141.332 5 65 957 9 100 100 1 275 175 29.8917 141.669 4 68 959 29.9921 141.244 T 70 960 29.8391 141.350 4 80 25 20
1986270N05178 1986 98 WP MM CARMEN 1986-10-07 18:00:00 TS 31.1208 141.882 65 955 tokyo main 462 373 OOOO______P___ jtwc_wp WP171986 31.0000 142.000 80 1 31.3000 141.800 5 65 955 9 100 100 1 275 175 0 31.2000 142.000 4 68 958 31.1000 141.700 T 70 960 31.0039 141.912 4 80 25 20
1986270N05178 1986 98 WP MM CARMEN 1986-10-07 21:00:00 TS 32.2704 142.373 main 370 312 PPPP______P___ WP171986 32.1642 142.572 80 1 32.4648 142.266 5 70 955 9 112 112 1 287 237 32.3067 142.309 4 68 957 32.2494 142.200 T 67 957 32.1668 142.518 4 80 24 21
1986270N05178 1986 98 WP MM CARMEN 1986-10-08 00:00:00 TS 33.4000 142.920 75 955 tokyo main 304 269 OOOO______O___ jtwc_wp WP171986 33.3000 143.200 80 1 33.6000 142.700 5 75 955 9 125 125 9 300 300 0 33.4000 142.700 4 68 956 33.4000 142.800 T 65 955 33.3000 143.200 4 80 25 23
1986270N05178 1986 98 WP MM CARMEN 1986-10-08 03:00:00 TS 34.5608 143.556 main 273 268 PPPP______P___ WP171986 34.3719 143.942 75 1 34.8009 143.021 5 75 957 9 162 112 9 350 300 34.6711 143.267 4 68 958 34.5220 143.534 T 65 955 34.4384 144.014 4 75 26 27
1986270N05178 1986 98 WP MM CARMEN 1986-10-08 06:00:00 TS 35.6801 144.318 75 960 tokyo main 306 306 OOOO______P___ jtwc_wp WP171986 35.4000 144.800 70 1 35.9000 143.500 5 75 960 1 200 100 1 400 300 0 35.9000 144.100 4 68 960 35.6000 144.400 T 65 955 35.5305 144.911 4 70 25 34
1986270N05178 1986 98 WP MM CARMEN 1986-10-08 09:00:00 TS 36.6696 145.275 main 378 378 PPPP______P___ WP171986 36.4069 145.764 65 1 36.7599 144.374 5 960 1 1 36.8672 145.314 4 63 960 36.6506 145.312 T 62 957 36.5321 145.854 4 65 25 41
1986270N05178 1986 98 WP MM CARMEN 1986-10-08 12:00:00 ET 37.5625 146.350 960 tokyo main 421 421 OOOO______O___ jtwc_wp WP171986 37.4000 146.800 60 0 37.5000 145.500 6 960 0 0 0 37.8000 146.600 9 58 960 37.6000 146.400 STS 60 960 37.4000 146.800 2 60 24 43
1986270N05178 1986 98 WP MM CARMEN 1986-10-08 15:00:00 ET 38.4308 147.363 main 473 469 _PPP______P___ WP171986 -1 38.2186 146.680 6 962 0 0 38.9831 147.517 9 58 962 38.3996 147.724 STS 60 962 38.1063 147.712 2 24 43
1986270N05178 1986 98 WP MM CARMEN 1986-10-08 18:00:00 ET 39.2950 148.414 964 tokyo main 496 475 _OOO______P___ -1 39.0000 148.000 6 964 0 0 0 40.1000 148.500 9 58 965 39.1000 149.200 STS 60 965 38.6800 148.591 2 25 46
1986270N05178 1986 98 WP MM CARMEN 1986-10-08 21:00:00 ET 40.1527 149.645 main 475 475 _PP_______P___ -1 39.9590 149.392 6 964 0 0 40.8409 149.996 9 58 967 STS 39.1639 149.449 2 27 50
1986270N05178 1986 98 WP MM CARMEN 1986-10-09 00:00:00 ET 41.0667 151.144 964 tokyo main 499 443 _OO_______O___ -1 41.0000 151.000 6 964 0 0 0 41.5000 151.500 9 58 970 39.6000 150.300 5 31 48
1986270N05178 1986 98 WP MM CARMEN 1986-10-09 03:00:00 ET 42.2229 152.696 main 447 433 _PP___________ -1 42.0750 152.921 6 966 0 0 42.3708 152.471 9 53 975 5 31 48
1986270N05178 1986 98 WP MM CARMEN 1986-10-09 06:00:00 ET 43.1500 154.250 968 tokyo main 443 443 _OO___________ -1 43.0000 155.000 6 968 0 0 0 43.3000 153.500 9 48 980 5 29 56
1986270N05178 1986 98 WP MM CARMEN 1986-10-09 09:00:00 ET 43.8709 156.038 main 501 501 _PP___________ -1 43.5339 157.014 6 970 0 0 44.2080 155.061 9 43 982 5 30 63
1986270N05178 1986 98 WP MM CARMEN 1986-10-09 12:00:00 ET 44.5000 158.000 972 tokyo main 617 617 _OO___________ -1 44.0000 159.000 6 972 0 0 0 45.0000 157.000 9 38 985 31 66
1986270N05178 1986 98 WP MM CARMEN 1986-10-09 15:00:00 ET 45.1256 160.020 main 643 637 _PP___________ -1 44.7092 161.001 6 972 0 0 45.5421 159.038 9 38 987 33 68
1986270N05178 1986 98 WP MM CARMEN 1986-10-09 18:00:00 ET 45.7143 162.357 972 tokyo main 693 693 _OO___________ -1 45.5000 163.000 6 972 0 0 0 46.0000 161.500 9 38 990 36 70
1986270N05178 1986 98 WP MM CARMEN 1986-10-09 21:00:00 ET 46.3611 164.901 main 768 768 _PP___________ -1 46.2874 165.073 6 972 0 0 46.5085 164.556 9 38 992 36 69
1986270N05178 1986 98 WP MM CARMEN 1986-10-10 00:00:00 ET 47.0000 167.200 972 tokyo main 842 842 _OO___________ -1 47.0000 167.000 6 972 0 0 0 47.0000 168.000 9 38 995 28 65
1986270N05178 1986 98 WP MM CARMEN 1986-10-10 03:00:00 ET 47.5345 168.656 main 868 859 _P____________ -1 47.5345 168.656 6 972 0 0 9 21 62
1986270N05178 1986 98 WP MM CARMEN 1986-10-10 06:00:00 ET 48.0000 170.000 972 tokyo main 895 893 _O____________ -1 48.0000 170.000 6 972 0 0 0 19 58
1986270N05178 1986 98 WP MM CARMEN 1986-10-10 09:00:00 ET 48.5342 171.077 main 921 914 _P____________ -1 48.5342 171.077 6 972 0 0 17 53
1986270N05178 1986 98 WP MM CARMEN 1986-10-10 12:00:00 ET 49.0000 172.000 972 tokyo main 924 924 _O____________ -1 49.0000 172.000 6 972 0 0 0 15 59
1986270N05178 1986 98 WP MM CARMEN 1986-10-10 15:00:00 ET 49.2866 173.003 main 952 952 _P____________ -1 49.2866 173.003 6 972 0 0 14 69
1986270N05178 1986 98 WP MM CARMEN 1986-10-10 18:00:00 ET 49.5000 174.000 972 tokyo main 991 991 _O____________ -1 49.5000 174.000 6 972 0 0 0 13 68
1986270N05178 1986 98 WP MM CARMEN 1986-10-10 21:00:00 ET 49.7843 174.924 main 1020 1020 _P____________ -1 49.7843 174.924 6 972 0 0 14 69
1986270N05178 1986 98 WP MM CARMEN 1986-10-11 00:00:00 ET 50.0000 176.000 972 tokyo main 1071 998 _O____________ -1 50.0000 176.000 6 972 0 0 0 16 80
1986270N05178 1986 98 WP MM CARMEN 1986-10-11 03:00:00 ET 50.0562 177.402 main 991 899 _P____________ -1 50.0562 177.402 6 972 0 0 19 90
1986270N05178 1986 98 WP MM CARMEN 1986-10-11 06:00:00 ET 50.0000 179.000 972 tokyo main 892 _O____________ -1 50.0000 179.000 6 972 0 0 0 20 93

Digital Typhoon Data and Search

About IBTrACS Database

This database is a web-friendly format of International Best Track Archive for Climate Stewardship (IBTrACS), a global best track data archive curated by NOAA dating back to 1842.

Updated: 2021-12-06